Terminal Aerodrome Forecast
Issued by NWS Milwaukee/Sullivan, WI

Home | Current Version | Previous Version | Text Only | Print | Product List | Glossary On
Versions: 1 2 3 4 5 6 7 8 9 10 11 12 13 14 15 16 17 18 19 20 21 22 23 24 25 26 27 28 29 30 31 32 33 34 35 36 37 38 39 40 41 42 43 44 45 46 47 48 49 50
000
FTUS43 KMKX 291120
TAFMSN
TAF
KMSN 291120Z 2912/3012 04011G18KT P6SM SCT050 BKN100
     FM292000 06013G23KT P6SM -RA OVC030
     FM292100 06015G24KT P6SM -RA OVC035
     FM300000 06015G25KT 5SM RA OVC025
     FM300500 06016G26KT 5SM RA OVC008
     FM300600 06015G26KT 6SM -RA OVC008
     FM300700 06014G25KT P6SM OVC008
     FM300800 07014G25KT 6SM -RA OVC008=

USA.gov is the U.S. government's official web portal to all federal, state and local government web resources and services.